sensor_id;sensor_type;location;lat;lon;timestamp;P1;durP1;ratioP1;P2;durP2;ratioP2
71671;SDS011;67659;45.554;11.812;2023-07-02T00:00:05;18.92;;;12.52;;
71671;SDS011;67659;45.554;11.812;2023-07-02T00:02:32;18.90;;;12.83;;
71671;SDS011;67659;45.554;11.812;2023-07-02T00:04:58;19.88;;;12.88;;
71671;SDS011;67659;45.554;11.812;2023-07-02T00:07:24;19.25;;;13.15;;
71671;SDS011;67659;45.554;11.812;2023-07-02T00:09:52;19.27;;;13.30;;
71671;SDS011;67659;45.554;11.812;2023-07-02T00:12:18;19.23;;;13.40;;
71671;SDS011;67659;45.554;11.812;2023-07-02T00:14:44;19.60;;;13.35;;
71671;SDS011;67659;45.554;11.812;2023-07-02T00:17:10;17.65;;;12.35;;
71671;SDS011;67659;45.554;11.812;2023-07-02T00:19:39;20.58;;;12.88;;
71671;SDS011;67659;45.554;11.812;2023-07-02T00:22:07;18.93;;;13.43;;
71671;SDS011;67659;45.554;11.812;2023-07-02T00:24:34;20.38;;;13.90;;
71671;SDS011;67659;45.554;11.812;2023-07-02T00:27:00;19.55;;;13.55;;
71671;SDS011;67659;45.554;11.812;2023-07-02T00:29:26;18.45;;;13.88;;
71671;SDS011;67659;45.554;11.812;2023-07-02T00:31:52;18.23;;;13.93;;
71671;SDS011;67659;45.554;11.812;2023-07-02T00:34:18;20.42;;;14.23;;
71671;SDS011;67659;45.554;11.812;2023-07-02T00:36:44;19.25;;;13.52;;
71671;SDS011;67659;45.554;11.812;2023-07-02T00:39:10;22.50;;;14.90;;
71671;SDS011;67659;45.554;11.812;2023-07-02T00:41:38;20.33;;;14.47;;
71671;SDS011;67659;45.554;11.812;2023-07-02T00:44:05;20.25;;;14.50;;
71671;SDS011;67659;45.554;11.812;2023-07-02T00:46:31;22.15;;;14.73;;
71671;SDS011;67659;45.554;11.812;2023-07-02T00:48:57;22.65;;;15.13;;
71671;SDS011;67659;45.554;11.812;2023-07-02T00:51:26;21.17;;;14.80;;
71671;SDS011;67659;45.554;11.812;2023-07-02T00:53:53;20.85;;;14.63;;
71671;SDS011;67659;45.554;11.812;2023-07-02T00:56:22;20.35;;;14.73;;
71671;SDS011;67659;45.554;11.812;2023-07-02T00:58:49;22.38;;;14.60;;
71671;SDS011;67659;45.554;11.812;2023-07-02T01:01:17;19.85;;;13.85;;
71671;SDS011;67659;45.554;11.812;2023-07-02T01:06:19;21.80;;;14.38;;
71671;SDS011;67659;45.554;11.812;2023-07-02T01:08:50;23.38;;;14.77;;
71671;SDS011;67659;45.554;11.812;2023-07-02T01:11:18;21.67;;;14.73;;
71671;SDS011;67659;45.554;11.812;2023-07-02T01:13:45;20.75;;;14.75;;
71671;SDS011;67659;45.554;11.812;2023-07-02T01:16:11;21.27;;;14.60;;
71671;SDS011;67659;45.554;11.812;2023-07-02T01:18:37;19.98;;;13.82;;
71671;SDS011;67659;45.554;11.812;2023-07-02T01:21:04;20.70;;;14.15;;
71671;SDS011;67659;45.554;11.812;2023-07-02T01:23:33;21.55;;;14.10;;
71671;SDS011;67659;45.554;11.812;2023-07-02T01:26:00;22.87;;;13.67;;
71671;SDS011;67659;45.554;11.812;2023-07-02T01:28:33;21.75;;;14.43;;
71671;SDS011;67659;45.554;11.812;2023-07-02T01:31:02;21.38;;;14.95;;
71671;SDS011;67659;45.554;11.812;2023-07-02T01:33:29;21.83;;;14.38;;
71671;SDS011;67659;45.554;11.812;2023-07-02T01:35:55;21.80;;;14.80;;
71671;SDS011;67659;45.554;11.812;2023-07-02T01:38:21;20.05;;;13.77;;
71671;SDS011;67659;45.554;11.812;2023-07-02T01:40:47;21.45;;;14.18;;
71671;SDS011;67659;45.554;11.812;2023-07-02T01:43:13;22.05;;;15.30;;
71671;SDS011;67659;45.554;11.812;2023-07-02T01:45:40;19.23;;;14.13;;
71671;SDS011;67659;45.554;11.812;2023-07-02T01:48:06;20.30;;;13.88;;
71671;SDS011;67659;45.554;11.812;2023-07-02T01:50:32;22.45;;;15.20;;
71671;SDS011;67659;45.554;11.812;2023-07-02T01:52:58;22.00;;;15.40;;
71671;SDS011;67659;45.554;11.812;2023-07-02T01:55:24;23.95;;;15.07;;
71671;SDS011;67659;45.554;11.812;2023-07-02T01:57:50;20.00;;;13.65;;
71671;SDS011;67659;45.554;11.812;2023-07-02T02:00:16;23.70;;;14.93;;
71671;SDS011;67659;45.554;11.812;2023-07-02T02:02:42;20.38;;;13.80;;
71671;SDS011;67659;45.554;11.812;2023-07-02T02:05:09;21.33;;;14.57;;
71671;SDS011;67659;45.554;11.812;2023-07-02T02:07:38;23.73;;;16.15;;
71671;SDS011;67659;45.554;11.812;2023-07-02T02:10:04;23.00;;;15.95;;
71671;SDS011;67659;45.554;11.812;2023-07-02T02:12:31;22.73;;;15.23;;
71671;SDS011;67659;45.554;11.812;2023-07-02T02:14:57;22.88;;;16.02;;
71671;SDS011;67659;45.554;11.812;2023-07-02T02:17:22;23.15;;;15.25;;
71671;SDS011;67659;45.554;11.812;2023-07-02T02:19:51;22.33;;;14.88;;
71671;SDS011;67659;45.554;11.812;2023-07-02T02:22:17;22.15;;;15.55;;
71671;SDS011;67659;45.554;11.812;2023-07-02T02:24:43;22.67;;;15.90;;
71671;SDS011;67659;45.554;11.812;2023-07-02T02:27:08;22.17;;;15.45;;
71671;SDS011;67659;45.554;11.812;2023-07-02T02:29:34;23.77;;;15.77;;
71671;SDS011;67659;45.554;11.812;2023-07-02T02:32:00;22.80;;;15.17;;
71671;SDS011;67659;45.554;11.812;2023-07-02T02:34:26;23.67;;;15.43;;
71671;SDS011;67659;45.554;11.812;2023-07-02T02:36:53;23.52;;;14.82;;
71671;SDS011;67659;45.554;11.812;2023-07-02T02:39:20;23.00;;;15.17;;
71671;SDS011;67659;45.554;11.812;2023-07-02T02:41:46;22.48;;;14.85;;
71671;SDS011;67659;45.554;11.812;2023-07-02T02:44:12;23.35;;;16.10;;
71671;SDS011;67659;45.554;11.812;2023-07-02T02:46:38;23.08;;;15.93;;
71671;SDS011;67659;45.554;11.812;2023-07-02T02:49:03;23.07;;;15.67;;
71671;SDS011;67659;45.554;11.812;2023-07-02T02:51:29;23.25;;;16.75;;
71671;SDS011;67659;45.554;11.812;2023-07-02T02:53:55;24.13;;;15.57;;
71671;SDS011;67659;45.554;11.812;2023-07-02T02:56:21;24.85;;;16.20;;
71671;SDS011;67659;45.554;11.812;2023-07-02T02:58:46;24.20;;;15.80;;
71671;SDS011;67659;45.554;11.812;2023-07-02T03:01:12;23.73;;;16.33;;
71671;SDS011;67659;45.554;11.812;2023-07-02T03:03:40;25.42;;;16.13;;
71671;SDS011;67659;45.554;11.812;2023-07-02T03:06:10;23.87;;;15.33;;
71671;SDS011;67659;45.554;11.812;2023-07-02T03:08:36;23.90;;;15.93;;
71671;SDS011;67659;45.554;11.812;2023-07-02T03:11:02;24.65;;;15.73;;
71671;SDS011;67659;45.554;11.812;2023-07-02T03:13:28;25.03;;;16.30;;
71671;SDS011;67659;45.554;11.812;2023-07-02T03:15:53;24.73;;;16.38;;
71671;SDS011;67659;45.554;11.812;2023-07-02T03:18:19;24.40;;;15.80;;
71671;SDS011;67659;45.554;11.812;2023-07-02T03:20:45;22.10;;;15.45;;
71671;SDS011;67659;45.554;11.812;2023-07-02T03:23:11;22.27;;;14.95;;
71671;SDS011;67659;45.554;11.812;2023-07-02T03:25:37;21.63;;;15.00;;
71671;SDS011;67659;45.554;11.812;2023-07-02T03:28:02;25.35;;;16.60;;
71671;SDS011;67659;45.554;11.812;2023-07-02T03:30:28;23.15;;;16.75;;
71671;SDS011;67659;45.554;11.812;2023-07-02T03:32:54;24.80;;;16.20;;
71671;SDS011;67659;45.554;11.812;2023-07-02T03:35:20;25.60;;;16.73;;
71671;SDS011;67659;45.554;11.812;2023-07-02T03:37:46;23.17;;;16.03;;
71671;SDS011;67659;45.554;11.812;2023-07-02T03:40:12;24.15;;;16.60;;
71671;SDS011;67659;45.554;11.812;2023-07-02T03:42:37;24.50;;;17.07;;
71671;SDS011;67659;45.554;11.812;2023-07-02T03:45:03;26.13;;;15.70;;
71671;SDS011;67659;45.554;11.812;2023-07-02T03:47:29;25.75;;;15.32;;
71671;SDS011;67659;45.554;11.812;2023-07-02T03:49:55;24.83;;;16.27;;
71671;SDS011;67659;45.554;11.812;2023-07-02T03:52:21;27.03;;;17.83;;
71671;SDS011;67659;45.554;11.812;2023-07-02T03:54:47;28.38;;;19.23;;
71671;SDS011;67659;45.554;11.812;2023-07-02T03:57:12;28.50;;;18.60;;
71671;SDS011;67659;45.554;11.812;2023-07-02T03:59:38;25.02;;;16.70;;
71671;SDS011;67659;45.554;11.812;2023-07-02T04:02:04;25.48;;;16.35;;
71671;SDS011;67659;45.554;11.812;2023-07-02T04:04:30;27.33;;;16.93;;
71671;SDS011;67659;45.554;11.812;2023-07-02T04:06:56;24.30;;;15.95;;
71671;SDS011;67659;45.554;11.812;2023-07-02T04:09:22;25.33;;;15.90;;
71671;SDS011;67659;45.554;11.812;2023-07-02T04:11:48;25.93;;;16.30;;
71671;SDS011;67659;45.554;11.812;2023-07-02T04:14:13;24.88;;;15.73;;
71671;SDS011;67659;45.554;11.812;2023-07-02T04:16:39;24.20;;;15.90;;
71671;SDS011;67659;45.554;11.812;2023-07-02T04:19:05;26.38;;;17.15;;
71671;SDS011;67659;45.554;11.812;2023-07-02T04:21:31;24.40;;;16.77;;
71671;SDS011;67659;45.554;11.812;2023-07-02T04:23:57;26.50;;;16.90;;
71671;SDS011;67659;45.554;11.812;2023-07-02T04:26:22;23.77;;;17.30;;
71671;SDS011;67659;45.554;11.812;2023-07-02T04:28:52;24.98;;;16.83;;
71671;SDS011;67659;45.554;11.812;2023-07-02T04:31:19;29.73;;;19.20;;
71671;SDS011;67659;45.554;11.812;2023-07-02T04:33:45;27.58;;;19.60;;
71671;SDS011;67659;45.554;11.812;2023-07-02T04:36:11;26.98;;;18.45;;
71671;SDS011;67659;45.554;11.812;2023-07-02T04:38:37;25.65;;;18.02;;
71671;SDS011;67659;45.554;11.812;2023-07-02T04:41:04;29.20;;;21.37;;
71671;SDS011;67659;45.554;11.812;2023-07-02T04:43:33;28.85;;;21.08;;
71671;SDS011;67659;45.554;11.812;2023-07-02T04:45:59;26.88;;;20.42;;
71671;SDS011;67659;45.554;11.812;2023-07-02T04:48:25;28.42;;;20.40;;
71671;SDS011;67659;45.554;11.812;2023-07-02T04:50:51;27.40;;;20.60;;
71671;SDS011;67659;45.554;11.812;2023-07-02T04:53:17;27.20;;;19.73;;
71671;SDS011;67659;45.554;11.812;2023-07-02T04:55:43;25.40;;;19.40;;
71671;SDS011;67659;45.554;11.812;2023-07-02T04:58:09;25.87;;;18.70;;
71671;SDS011;67659;45.554;11.812;2023-07-02T05:00:35;25.10;;;19.52;;
71671;SDS011;67659;45.554;11.812;2023-07-02T05:03:00;26.17;;;19.70;;
71671;SDS011;67659;45.554;11.812;2023-07-02T05:05:26;27.87;;;19.50;;
71671;SDS011;67659;45.554;11.812;2023-07-02T05:08:18;28.63;;;20.67;;
71671;SDS011;67659;45.554;11.812;2023-07-02T05:10:56;28.65;;;19.88;;
71671;SDS011;67659;45.554;11.812;2023-07-02T05:13:40;27.73;;;20.80;;
71671;SDS011;67659;45.554;11.812;2023-07-02T05:16:17;27.93;;;21.03;;
71671;SDS011;67659;45.554;11.812;2023-07-02T05:19:04;27.02;;;20.52;;
71671;SDS011;67659;45.554;11.812;2023-07-02T05:21:45;29.85;;;20.98;;
71671;SDS011;67659;45.554;11.812;2023-07-02T05:24:13;28.00;;;20.63;;
71671;SDS011;67659;45.554;11.812;2023-07-02T05:26:42;27.75;;;21.30;;
71671;SDS011;67659;45.554;11.812;2023-07-02T05:29:13;27.37;;;19.60;;
71671;SDS011;67659;45.554;11.812;2023-07-02T05:31:42;26.08;;;19.42;;
71671;SDS011;67659;45.554;11.812;2023-07-02T05:34:07;25.52;;;20.02;;
71671;SDS011;67659;45.554;11.812;2023-07-02T05:36:33;27.70;;;20.15;;
71671;SDS011;67659;45.554;11.812;2023-07-02T05:38:59;27.07;;;19.90;;
71671;SDS011;67659;45.554;11.812;2023-07-02T05:41:25;26.48;;;20.23;;
71671;SDS011;67659;45.554;11.812;2023-07-02T05:43:56;25.27;;;19.58;;
71671;SDS011;67659;45.554;11.812;2023-07-02T05:46:23;19.33;;;14.60;;
71671;SDS011;67659;45.554;11.812;2023-07-02T05:48:49;22.85;;;15.75;;
71671;SDS011;67659;45.554;11.812;2023-07-02T05:51:19;22.53;;;14.83;;
71671;SDS011;67659;45.554;11.812;2023-07-02T05:53:49;18.40;;;13.68;;
71671;SDS011;67659;45.554;11.812;2023-07-02T05:56:16;18.88;;;13.00;;
71671;SDS011;67659;45.554;11.812;2023-07-02T05:58:42;18.65;;;13.45;;
71671;SDS011;67659;45.554;11.812;2023-07-02T06:01:08;18.80;;;13.30;;
71671;SDS011;67659;45.554;11.812;2023-07-02T06:03:34;18.67;;;13.20;;
71671;SDS011;67659;45.554;11.812;2023-07-02T06:06:00;19.02;;;14.15;;
71671;SDS011;67659;45.554;11.812;2023-07-02T06:08:26;15.93;;;10.90;;
71671;SDS011;67659;45.554;11.812;2023-07-02T06:10:52;16.58;;;11.35;;
71671;SDS011;67659;45.554;11.812;2023-07-02T06:13:18;18.98;;;11.80;;
71671;SDS011;67659;45.554;11.812;2023-07-02T06:15:44;18.40;;;11.52;;
71671;SDS011;67659;45.554;11.812;2023-07-02T06:18:11;17.97;;;12.37;;
71671;SDS011;67659;45.554;11.812;2023-07-02T06:20:37;18.63;;;12.75;;
71671;SDS011;67659;45.554;11.812;2023-07-02T06:23:03;18.75;;;12.68;;
71671;SDS011;67659;45.554;11.812;2023-07-02T06:25:29;14.40;;;10.30;;
71671;SDS011;67659;45.554;11.812;2023-07-02T06:27:55;16.30;;;11.50;;
71671;SDS011;67659;45.554;11.812;2023-07-02T06:30:23;18.83;;;12.50;;
71671;SDS011;67659;45.554;11.812;2023-07-02T06:32:49;16.67;;;11.57;;
71671;SDS011;67659;45.554;11.812;2023-07-02T06:35:15;15.90;;;10.80;;
71671;SDS011;67659;45.554;11.812;2023-07-02T06:37:41;15.60;;;11.43;;
71671;SDS011;67659;45.554;11.812;2023-07-02T06:40:07;15.68;;;11.02;;
71671;SDS011;67659;45.554;11.812;2023-07-02T06:42:33;15.10;;;10.35;;
71671;SDS011;67659;45.554;11.812;2023-07-02T06:45:01;17.00;;;11.00;;
71671;SDS011;67659;45.554;11.812;2023-07-02T06:47:27;17.20;;;10.83;;
71671;SDS011;67659;45.554;11.812;2023-07-02T06:49:53;16.98;;;10.80;;
71671;SDS011;67659;45.554;11.812;2023-07-02T06:52:19;15.90;;;10.70;;
71671;SDS011;67659;45.554;11.812;2023-07-02T06:54:45;17.40;;;11.40;;
71671;SDS011;67659;45.554;11.812;2023-07-02T06:57:12;15.83;;;10.90;;
71671;SDS011;67659;45.554;11.812;2023-07-02T06:59:38;14.15;;;9.48;;
71671;SDS011;67659;45.554;11.812;2023-07-02T07:02:04;17.33;;;10.93;;
71671;SDS011;67659;45.554;11.812;2023-07-02T07:04:31;18.80;;;11.93;;
71671;SDS011;67659;45.554;11.812;2023-07-02T07:06:57;20.07;;;11.97;;
71671;SDS011;67659;45.554;11.812;2023-07-02T07:09:23;16.92;;;11.50;;
71671;SDS011;67659;45.554;11.812;2023-07-02T07:11:49;18.13;;;11.82;;
71671;SDS011;67659;45.554;11.812;2023-07-02T07:14:14;17.48;;;12.65;;
71671;SDS011;67659;45.554;11.812;2023-07-02T07:16:40;17.23;;;11.47;;
71671;SDS011;67659;45.554;11.812;2023-07-02T07:19:06;16.52;;;11.45;;
71671;SDS011;67659;45.554;11.812;2023-07-02T07:21:33;19.20;;;12.27;;
71671;SDS011;67659;45.554;11.812;2023-07-02T07:24:00;17.63;;;13.05;;
71671;SDS011;67659;45.554;11.812;2023-07-02T07:26:26;17.93;;;12.07;;
71671;SDS011;67659;45.554;11.812;2023-07-02T07:28:52;17.20;;;12.00;;
71671;SDS011;67659;45.554;11.812;2023-07-02T07:31:19;19.08;;;11.65;;
71671;SDS011;67659;45.554;11.812;2023-07-02T07:33:45;16.63;;;11.75;;
71671;SDS011;67659;45.554;11.812;2023-07-02T07:36:11;19.10;;;12.50;;
71671;SDS011;67659;45.554;11.812;2023-07-02T07:38:37;18.85;;;12.40;;
71671;SDS011;67659;45.554;11.812;2023-07-02T07:41:03;18.77;;;12.30;;
71671;SDS011;67659;45.554;11.812;2023-07-02T07:43:29;17.50;;;12.20;;
71671;SDS011;67659;45.554;11.812;2023-07-02T07:45:56;19.97;;;12.43;;
71671;SDS011;67659;45.554;11.812;2023-07-02T07:48:21;17.38;;;11.38;;
71671;SDS011;67659;45.554;11.812;2023-07-02T07:50:47;18.05;;;11.02;;
71671;SDS011;67659;45.554;11.812;2023-07-02T07:53:14;18.80;;;12.32;;
71671;SDS011;67659;45.554;11.812;2023-07-02T07:55:39;17.73;;;11.80;;
71671;SDS011;67659;45.554;11.812;2023-07-02T07:58:05;19.45;;;12.45;;
71671;SDS011;67659;45.554;11.812;2023-07-02T08:00:31;20.85;;;12.60;;
71671;SDS011;67659;45.554;11.812;2023-07-02T08:02:57;19.07;;;12.27;;
71671;SDS011;67659;45.554;11.812;2023-07-02T08:05:24;20.75;;;13.13;;
71671;SDS011;67659;45.554;11.812;2023-07-02T08:07:50;21.75;;;12.95;;
71671;SDS011;67659;45.554;11.812;2023-07-02T08:10:18;18.70;;;12.65;;
71671;SDS011;67659;45.554;11.812;2023-07-02T08:12:44;16.73;;;11.48;;
71671;SDS011;67659;45.554;11.812;2023-07-02T08:15:12;18.00;;;11.17;;
71671;SDS011;67659;45.554;11.812;2023-07-02T08:17:38;17.90;;;11.93;;
71671;SDS011;67659;45.554;11.812;2023-07-02T08:20:04;15.95;;;10.20;;
71671;SDS011;67659;45.554;11.812;2023-07-02T08:22:34;19.92;;;11.80;;
71671;SDS011;67659;45.554;11.812;2023-07-02T08:25:04;19.70;;;11.70;;
71671;SDS011;67659;45.554;11.812;2023-07-02T08:27:30;18.20;;;12.65;;
71671;SDS011;67659;45.554;11.812;2023-07-02T08:29:56;16.52;;;11.68;;
71671;SDS011;67659;45.554;11.812;2023-07-02T08:32:22;18.58;;;12.48;;
71671;SDS011;67659;45.554;11.812;2023-07-02T08:34:48;18.43;;;11.97;;
71671;SDS011;67659;45.554;11.812;2023-07-02T08:37:17;17.00;;;12.10;;
71671;SDS011;67659;45.554;11.812;2023-07-02T08:39:43;18.27;;;12.13;;
71671;SDS011;67659;45.554;11.812;2023-07-02T08:42:09;16.50;;;11.18;;
71671;SDS011;67659;45.554;11.812;2023-07-02T08:44:35;17.60;;;11.83;;
71671;SDS011;67659;45.554;11.812;2023-07-02T08:47:01;16.27;;;11.30;;
71671;SDS011;67659;45.554;11.812;2023-07-02T08:49:27;15.07;;;10.70;;
71671;SDS011;67659;45.554;11.812;2023-07-02T08:51:53;18.08;;;11.20;;
71671;SDS011;67659;45.554;11.812;2023-07-02T08:54:19;16.45;;;11.43;;
71671;SDS011;67659;45.554;11.812;2023-07-02T08:56:46;16.13;;;11.27;;
71671;SDS011;67659;45.554;11.812;2023-07-02T08:59:12;16.35;;;10.57;;
71671;SDS011;67659;45.554;11.812;2023-07-02T09:01:48;15.82;;;10.85;;
71671;SDS011;67659;45.554;11.812;2023-07-02T09:04:16;14.57;;;9.70;;
71671;SDS011;67659;45.554;11.812;2023-07-02T09:06:46;15.48;;;10.27;;
71671;SDS011;67659;45.554;11.812;2023-07-02T09:09:13;12.83;;;9.10;;
71671;SDS011;67659;45.554;11.812;2023-07-02T09:11:49;13.85;;;8.75;;
71671;SDS011;67659;45.554;11.812;2023-07-02T09:14:25;14.00;;;9.95;;
71671;SDS011;67659;45.554;11.812;2023-07-02T09:17:03;13.57;;;9.07;;
71671;SDS011;67659;45.554;11.812;2023-07-02T09:19:30;13.27;;;8.98;;
71671;SDS011;67659;45.554;11.812;2023-07-02T09:21:57;16.60;;;10.60;;
71671;SDS011;67659;45.554;11.812;2023-07-02T09:24:27;14.10;;;9.40;;
71671;SDS011;67659;45.554;11.812;2023-07-02T09:26:55;12.90;;;9.30;;
71671;SDS011;67659;45.554;11.812;2023-07-02T09:29:23;14.65;;;10.05;;
71671;SDS011;67659;45.554;11.812;2023-07-02T09:32:02;13.00;;;9.70;;
71671;SDS011;67659;45.554;11.812;2023-07-02T09:34:30;15.57;;;10.10;;
71671;SDS011;67659;45.554;11.812;2023-07-02T09:36:58;14.38;;;10.38;;
71671;SDS011;67659;45.554;11.812;2023-07-02T09:39:32;14.75;;;11.27;;
71671;SDS011;67659;45.554;11.812;2023-07-02T09:41:59;15.65;;;11.00;;
71671;SDS011;67659;45.554;11.812;2023-07-02T09:44:27;15.20;;;10.82;;
71671;SDS011;67659;45.554;11.812;2023-07-02T09:47:04;15.33;;;10.77;;
71671;SDS011;67659;45.554;11.812;2023-07-02T09:49:33;15.57;;;11.10;;
71671;SDS011;67659;45.554;11.812;2023-07-02T09:52:04;12.63;;;9.05;;
71671;SDS011;67659;45.554;11.812;2023-07-02T09:54:33;16.60;;;11.30;;
71671;SDS011;67659;45.554;11.812;2023-07-02T09:56:59;15.27;;;10.23;;
71671;SDS011;67659;45.554;11.812;2023-07-02T09:59:26;15.60;;;11.40;;
71671;SDS011;67659;45.554;11.812;2023-07-02T10:01:53;14.27;;;10.00;;
71671;SDS011;67659;45.554;11.812;2023-07-02T10:04:19;14.77;;;10.27;;
71671;SDS011;67659;45.554;11.812;2023-07-02T10:06:53;14.93;;;10.43;;
71671;SDS011;67659;45.554;11.812;2023-07-02T10:09:22;13.23;;;9.75;;
71671;SDS011;67659;45.554;11.812;2023-07-02T10:12:16;12.27;;;9.53;;
71671;SDS011;67659;45.554;11.812;2023-07-02T10:14:55;14.95;;;10.43;;
71671;SDS011;67659;45.554;11.812;2023-07-02T10:17:26;13.93;;;9.88;;
71671;SDS011;67659;45.554;11.812;2023-07-02T10:19:58;15.48;;;9.65;;
71671;SDS011;67659;45.554;11.812;2023-07-02T10:22:25;12.02;;;8.50;;
71671;SDS011;67659;45.554;11.812;2023-07-02T10:27:35;13.50;;;9.93;;
71671;SDS011;67659;45.554;11.812;2023-07-02T10:30:06;15.20;;;10.57;;
71671;SDS011;67659;45.554;11.812;2023-07-02T10:32:34;14.63;;;10.60;;
71671;SDS011;67659;45.554;11.812;2023-07-02T10:35:01;13.52;;;10.10;;
71671;SDS011;67659;45.554;11.812;2023-07-02T10:37:34;15.40;;;10.80;;
71671;SDS011;67659;45.554;11.812;2023-07-02T10:40:08;13.95;;;11.02;;
71671;SDS011;67659;45.554;11.812;2023-07-02T10:42:50;14.48;;;11.23;;
71671;SDS011;67659;45.554;11.812;2023-07-02T10:45:17;13.57;;;10.88;;
71671;SDS011;67659;45.554;11.812;2023-07-02T10:47:43;14.25;;;11.20;;
71671;SDS011;67659;45.554;11.812;2023-07-02T10:52:42;16.27;;;13.00;;
71671;SDS011;67659;45.554;11.812;2023-07-02T10:55:09;16.55;;;11.70;;
71671;SDS011;67659;45.554;11.812;2023-07-02T10:57:35;15.05;;;11.52;;
71671;SDS011;67659;45.554;11.812;2023-07-02T11:00:07;16.15;;;12.38;;
71671;SDS011;67659;45.554;11.812;2023-07-02T11:02:34;13.57;;;11.37;;
71671;SDS011;67659;45.554;11.812;2023-07-02T11:05:01;15.35;;;11.32;;
71671;SDS011;67659;45.554;11.812;2023-07-02T11:07:28;15.75;;;10.90;;
71671;SDS011;67659;45.554;11.812;2023-07-02T11:09:54;14.13;;;10.90;;
71671;SDS011;67659;45.554;11.812;2023-07-02T11:12:28;13.07;;;10.70;;
71671;SDS011;67659;45.554;11.812;2023-07-02T11:14:55;14.53;;;10.20;;
71671;SDS011;67659;45.554;11.812;2023-07-02T11:17:35;13.30;;;10.15;;
71671;SDS011;67659;45.554;11.812;2023-07-02T11:20:06;12.73;;;9.70;;
71671;SDS011;67659;45.554;11.812;2023-07-02T11:22:36;11.48;;;8.68;;
71671;SDS011;67659;45.554;11.812;2023-07-02T11:27:39;15.10;;;10.90;;
71671;SDS011;67659;45.554;11.812;2023-07-02T11:30:06;13.00;;;10.20;;
71671;SDS011;67659;45.554;11.812;2023-07-02T11:32:34;14.50;;;10.32;;
71671;SDS011;67659;45.554;11.812;2023-07-02T11:35:18;12.98;;;9.50;;
71671;SDS011;67659;45.554;11.812;2023-07-02T11:37:44;14.10;;;10.43;;
71671;SDS011;67659;45.554;11.812;2023-07-02T11:40:11;13.23;;;9.30;;
71671;SDS011;67659;45.554;11.812;2023-07-02T11:42:38;12.88;;;9.75;;
71671;SDS011;67659;45.554;11.812;2023-07-02T11:45:04;12.77;;;9.90;;
71671;SDS011;67659;45.554;11.812;2023-07-02T11:47:30;13.75;;;11.90;;
71671;SDS011;67659;45.554;11.812;2023-07-02T11:49:56;12.70;;;9.70;;
71671;SDS011;67659;45.554;11.812;2023-07-02T11:52:24;13.63;;;10.52;;
71671;SDS011;67659;45.554;11.812;2023-07-02T11:54:50;13.48;;;10.80;;
71671;SDS011;67659;45.554;11.812;2023-07-02T11:57:16;12.75;;;9.95;;
71671;SDS011;67659;45.554;11.812;2023-07-02T11:59:42;12.60;;;9.73;;
71671;SDS011;67659;45.554;11.812;2023-07-02T12:02:08;15.00;;;11.35;;
71671;SDS011;67659;45.554;11.812;2023-07-02T12:04:34;15.73;;;11.77;;
71671;SDS011;67659;45.554;11.812;2023-07-02T12:07:00;12.83;;;10.10;;
71671;SDS011;67659;45.554;11.812;2023-07-02T12:09:28;12.88;;;10.02;;
71671;SDS011;67659;45.554;11.812;2023-07-02T12:11:54;13.15;;;9.77;;
71671;SDS011;67659;45.554;11.812;2023-07-02T12:14:20;11.02;;;8.27;;
71671;SDS011;67659;45.554;11.812;2023-07-02T12:16:46;14.73;;;12.20;;
71671;SDS011;67659;45.554;11.812;2023-07-02T12:19:12;12.45;;;9.77;;
71671;SDS011;67659;45.554;11.812;2023-07-02T12:21:38;14.27;;;10.93;;
71671;SDS011;67659;45.554;11.812;2023-07-02T12:24:04;13.10;;;8.80;;
71671;SDS011;67659;45.554;11.812;2023-07-02T12:26:34;13.32;;;10.68;;
71671;SDS011;67659;45.554;11.812;2023-07-02T12:29:00;14.05;;;10.93;;
71671;SDS011;67659;45.554;11.812;2023-07-02T12:31:26;14.07;;;10.55;;
71671;SDS011;67659;45.554;11.812;2023-07-02T12:33:52;13.67;;;10.90;;
71671;SDS011;67659;45.554;11.812;2023-07-02T12:36:18;13.93;;;10.43;;
71671;SDS011;67659;45.554;11.812;2023-07-02T12:38:44;11.48;;;9.30;;
71671;SDS011;67659;45.554;11.812;2023-07-02T12:41:14;13.25;;;10.18;;
71671;SDS011;67659;45.554;11.812;2023-07-02T12:43:41;13.57;;;10.20;;
71671;SDS011;67659;45.554;11.812;2023-07-02T12:46:07;11.63;;;9.40;;
71671;SDS011;67659;45.554;11.812;2023-07-02T12:48:33;12.73;;;9.43;;
71671;SDS011;67659;45.554;11.812;2023-07-02T12:50:59;10.88;;;8.85;;
71671;SDS011;67659;45.554;11.812;2023-07-02T12:53:26;15.83;;;10.30;;
71671;SDS011;67659;45.554;11.812;2023-07-02T12:55:53;13.23;;;10.60;;
71671;SDS011;67659;45.554;11.812;2023-07-02T12:58:20;13.82;;;9.85;;
71671;SDS011;67659;45.554;11.812;2023-07-02T13:00:46;11.95;;;9.68;;
71671;SDS011;67659;45.554;11.812;2023-07-02T13:03:12;14.25;;;10.45;;
71671;SDS011;67659;45.554;11.812;2023-07-02T13:05:39;13.80;;;10.87;;
71671;SDS011;67659;45.554;11.812;2023-07-02T13:08:05;13.52;;;9.75;;
71671;SDS011;67659;45.554;11.812;2023-07-02T13:10:32;12.18;;;9.45;;
71671;SDS011;67659;45.554;11.812;2023-07-02T13:12:58;11.75;;;9.60;;
71671;SDS011;67659;45.554;11.812;2023-07-02T13:15:25;12.90;;;9.30;;
71671;SDS011;67659;45.554;11.812;2023-07-02T13:17:51;13.17;;;10.43;;
71671;SDS011;67659;45.554;11.812;2023-07-02T13:20:17;11.75;;;9.90;;
71671;SDS011;67659;45.554;11.812;2023-07-02T13:22:43;10.98;;;8.88;;
71671;SDS011;67659;45.554;11.812;2023-07-02T13:25:09;12.43;;;10.43;;
71671;SDS011;67659;45.554;11.812;2023-07-02T13:27:35;12.87;;;9.67;;
71671;SDS011;67659;45.554;11.812;2023-07-02T13:30:02;13.02;;;9.38;;
71671;SDS011;67659;45.554;11.812;2023-07-02T13:32:28;15.48;;;11.57;;
71671;SDS011;67659;45.554;11.812;2023-07-02T13:34:54;13.97;;;11.07;;
71671;SDS011;67659;45.554;11.812;2023-07-02T13:37:20;14.30;;;10.90;;
71671;SDS011;67659;45.554;11.812;2023-07-02T13:39:46;13.77;;;11.32;;
71671;SDS011;67659;45.554;11.812;2023-07-02T13:42:13;14.73;;;10.38;;
71671;SDS011;67659;45.554;11.812;2023-07-02T13:44:39;12.77;;;9.80;;
71671;SDS011;67659;45.554;11.812;2023-07-02T13:47:05;13.32;;;10.27;;
71671;SDS011;67659;45.554;11.812;2023-07-02T13:49:31;11.55;;;10.05;;
71671;SDS011;67659;45.554;11.812;2023-07-02T13:51:58;12.75;;;9.63;;
71671;SDS011;67659;45.554;11.812;2023-07-02T13:54:24;11.25;;;8.45;;
71671;SDS011;67659;45.554;11.812;2023-07-02T13:56:50;15.20;;;10.50;;
71671;SDS011;67659;45.554;11.812;2023-07-02T13:59:17;11.52;;;8.85;;
71671;SDS011;67659;45.554;11.812;2023-07-02T14:01:44;11.15;;;8.90;;
71671;SDS011;67659;45.554;11.812;2023-07-02T14:04:11;11.82;;;9.43;;
71671;SDS011;67659;45.554;11.812;2023-07-02T14:06:38;11.93;;;9.48;;
71671;SDS011;67659;45.554;11.812;2023-07-02T14:09:04;12.50;;;9.77;;
71671;SDS011;67659;45.554;11.812;2023-07-02T14:11:31;11.95;;;9.85;;
71671;SDS011;67659;45.554;11.812;2023-07-02T14:13:57;12.18;;;9.32;;
71671;SDS011;67659;45.554;11.812;2023-07-02T14:16:23;11.97;;;9.60;;
71671;SDS011;67659;45.554;11.812;2023-07-02T14:18:50;12.40;;;8.93;;
71671;SDS011;67659;45.554;11.812;2023-07-02T14:21:16;12.95;;;9.15;;